Straumbas — LIOD — position and weather

sailwx.info

Track history (hours):
 
Tides and Currents Weather Stations Pressure Air Temp Water Temp Dewpoint Dewpoint Depression Visibility Wind Speed Wind Dir Waves Ship Positions

Straumbas

Last reported at 2015-Mar-27 15:33 UTC. Time now 2015-Mar-27 15:48 UTC.
Position N 67°03' E 013°51'.

Length 38 m; draft 5.5 m.

Type: Fishing. MMSI: 258035000.

Date/timePositionNaut miles runAvg speedWind from/ knotsBaromVisibWave heightAir tempDewpointWater temp
2015-Mar-27 15:33N 67°03' E 013°51'9 8.8
2015-Mar-27 14:33N 66°58' E 013°32'9 8.5
2015-Mar-27 13:32N 66°51' E 013°19'21 8.6
2015-Mar-27 11:04N 66°31' E 012°58'5 8.9
2015-Mar-27 10:33N 66°27' E 012°60'9 8.7
2015-Mar-27 09:32N 66°18' E 012°56'11 8.9
2015-Mar-27 08:16N 66°08' E 012°47'60 8.8
2015-Mar-27 01:30N 65°12' E 011°53'9 9.2
2015-Mar-27 00:32N 65°04' E 011°45'8 8.5
2015-Mar-26 23:33N 65°00' E 011°28'9 9.3
2015-Mar-26 22:33N 64°52' E 011°17'9 9.3
2015-Mar-26 21:33N 64°45' E 011°01'79 8.5
2015-Mar-26 12:21N 63°38' E 009°29'279 6.1
2015-Mar-24 14:33N 59°27' E 005°13'3 3.5
2015-Mar-24 13:33N 59°24' E 005°16'0 0.0
2015-Mar-24 12:33N 59°24' E 005°16'1 1.3
2015-Mar-24 11:33N 59°23' E 005°18'2 2.0
2015-Mar-24 10:27N 59°20' E 005°18'0 0.0
2015-Mar-24 09:23N 59°20' E 005°18'0 0.0
2015-Mar-24 08:33N 59°20' E 005°18'0 0.3
2015-Mar-24 07:16N 59°20' E 005°18'0 0.0
2015-Mar-23 21:32N 59°20' E 005°18'0 0.2
2015-Mar-23 19:18N 59°20' E 005°18'0 0.0
2015-Mar-23 18:10N 59°20' E 005°18'2 3.8
2015-Mar-23 17:33N 59°23' E 005°18'  
Track history (hours):
 
Tides and Currents Weather Stations Pressure Air Temp Water Temp Dewpoint Dewpoint Depression Visibility Wind Speed Wind Dir Waves Ship Positions

Straumbas

Last reported at 2015-Mar-27 15:33 UTC. Time now 2015-Mar-27 15:48 UTC.
Position N 67°03' E 013°51'.

Length 38 m; draft 5.5 m.

Type: Fishing. MMSI: 258035000.

Date/timePositionNaut miles runAvg speedWind from/ knotsBaromVisibWave heightAir tempDewpointWater temp
2015-Mar-27 15:33N 67°03' E 013°51'9 8.8
2015-Mar-27 14:33N 66°58' E 013°32'9 8.5
2015-Mar-27 13:32N 66°51' E 013°19'21 8.6
2015-Mar-27 11:04N 66°31' E 012°58'5 8.9
2015-Mar-27 10:33N 66°27' E 012°60'9 8.7
2015-Mar-27 09:32N 66°18' E 012°56'11 8.9
2015-Mar-27 08:16N 66°08' E 012°47'60 8.8
2015-Mar-27 01:30N 65°12' E 011°53'9 9.2
2015-Mar-27 00:32N 65°04' E 011°45'8 8.5
2015-Mar-26 23:33N 65°00' E 011°28'9 9.3
2015-Mar-26 22:33N 64°52' E 011°17'9 9.3
2015-Mar-26 21:33N 64°45' E 011°01'79 8.5
2015-Mar-26 12:21N 63°38' E 009°29'279 6.1
2015-Mar-24 14:33N 59°27' E 005°13'3 3.5
2015-Mar-24 13:33N 59°24' E 005°16'0 0.0
2015-Mar-24 12:33N 59°24' E 005°16'1 1.3
2015-Mar-24 11:33N 59°23' E 005°18'2 2.0
2015-Mar-24 10:27N 59°20' E 005°18'0 0.0
2015-Mar-24 09:23N 59°20' E 005°18'0 0.0
2015-Mar-24 08:33N 59°20' E 005°18'0 0.3
2015-Mar-24 07:16N 59°20' E 005°18'0 0.0
2015-Mar-23 21:32N 59°20' E 005°18'0 0.2
2015-Mar-23 19:18N 59°20' E 005°18'0 0.0
2015-Mar-23 18:10N 59°20' E 005°18'2 3.8
2015-Mar-23 17:33N 59°23' E 005°18'  

Dump ship's entire track history